Decoded Metar for YBCG (COOLANGATTA in AUSTRALIA) (IATA:OOL) | Meteo·Mobile Aviation Weather
aviador You're here:

YBCG Decoded Metar

COOLANGATTA in AUSTRALIA
Report Time2019-10-22 13:00:00
UTC Time2019-10-22 13:27:07
Flight Rules vfr VFR
Wind230° at 04 kt
W.Decomp.*RWY 17: 2.6 kt HW 3.0 kt RCW
RWY 14: 0.8 kt HW 3.9 kt RCW
Visibility9999 m
Phenomena:N/A
Clouds:Scattered 031 Hf
Scattered 044 Hf
Expected CloudBase > 800 ft AGL from Temp-Dew spread
CeilingNone
Temp16°C (ISA +1)
Dew Point14°C (88% RH)
AAT15.8°C
QNH1024 hPa
Density Alt-16 ft
Elevation20 ft
Report Wrong Elevation
Raw Report
METAR YBCG 221300Z AUTO 23004KT 9999 // SCT031 SCT044 16/14 Q1024=

Extra information for YBCG:More info

Metar Taf Metar & Taf Last 4 Metars F.Rules Stats Wind Profile Meteogram Temp Stats Airport Information Weather charts Add Link Nearby VenuesMetar ALERT Operation Metar Decoded Social comments